sensor_id;sensor_type;location;lat;lon;timestamp;P1;durP1;ratioP1;P2;durP2;ratioP2
55015;SDS011;40919;43.236;21.590;2022-07-05T00:01:07;19.17;;;16.00;;
55015;SDS011;40919;43.236;21.590;2022-07-05T00:03:33;20.88;;;15.23;;
55015;SDS011;40919;43.236;21.590;2022-07-05T00:05:59;17.83;;;14.05;;
55015;SDS011;40919;43.236;21.590;2022-07-05T00:08:25;15.70;;;13.95;;
55015;SDS011;40919;43.236;21.590;2022-07-05T00:10:51;17.45;;;14.82;;
55015;SDS011;40919;43.236;21.590;2022-07-05T00:13:17;20.17;;;15.85;;
55015;SDS011;40919;43.236;21.590;2022-07-05T00:15:43;16.52;;;14.77;;
55015;SDS011;40919;43.236;21.590;2022-07-05T00:18:08;19.15;;;15.05;;
55015;SDS011;40919;43.236;21.590;2022-07-05T00:20:34;18.23;;;16.30;;
55015;SDS011;40919;43.236;21.590;2022-07-05T00:23:00;18.48;;;15.63;;
55015;SDS011;40919;43.236;21.590;2022-07-05T00:25:26;17.55;;;14.88;;
55015;SDS011;40919;43.236;21.590;2022-07-05T00:27:52;18.63;;;16.48;;
55015;SDS011;40919;43.236;21.590;2022-07-05T00:30:20;17.98;;;16.13;;
55015;SDS011;40919;43.236;21.590;2022-07-05T00:32:46;18.77;;;16.58;;
55015;SDS011;40919;43.236;21.590;2022-07-05T00:35:12;18.73;;;16.63;;
55015;SDS011;40919;43.236;21.590;2022-07-05T00:37:38;20.70;;;16.45;;
55015;SDS011;40919;43.236;21.590;2022-07-05T00:40:04;20.38;;;15.68;;
55015;SDS011;40919;43.236;21.590;2022-07-05T00:42:33;21.60;;;17.40;;
55015;SDS011;40919;43.236;21.590;2022-07-05T00:44:59;20.73;;;16.85;;
55015;SDS011;40919;43.236;21.590;2022-07-05T00:47:25;18.13;;;16.20;;
55015;SDS011;40919;43.236;21.590;2022-07-05T00:49:51;20.33;;;18.05;;
55015;SDS011;40919;43.236;21.590;2022-07-05T00:52:17;18.90;;;16.92;;
55015;SDS011;40919;43.236;21.590;2022-07-05T00:54:44;19.92;;;15.77;;
55015;SDS011;40919;43.236;21.590;2022-07-05T00:57:10;20.27;;;16.58;;
55015;SDS011;40919;43.236;21.590;2022-07-05T00:59:35;18.02;;;15.52;;
55015;SDS011;40919;43.236;21.590;2022-07-05T01:02:02;20.75;;;15.93;;
55015;SDS011;40919;43.236;21.590;2022-07-05T01:04:27;21.73;;;16.95;;
55015;SDS011;40919;43.236;21.590;2022-07-05T01:06:53;17.52;;;15.80;;
55015;SDS011;40919;43.236;21.590;2022-07-05T01:09:21;19.23;;;16.52;;
55015;SDS011;40919;43.236;21.590;2022-07-05T01:11:48;23.55;;;16.80;;
55015;SDS011;40919;43.236;21.590;2022-07-05T01:14:19;18.38;;;16.48;;
55015;SDS011;40919;43.236;21.590;2022-07-05T01:16:47;19.43;;;17.33;;
55015;SDS011;40919;43.236;21.590;2022-07-05T01:19:14;18.40;;;15.70;;
55015;SDS011;40919;43.236;21.590;2022-07-05T01:21:43;18.55;;;16.65;;
55015;SDS011;40919;43.236;21.590;2022-07-05T01:24:12;17.40;;;15.65;;
55015;SDS011;40919;43.236;21.590;2022-07-05T01:26:40;19.42;;;16.17;;
55015;SDS011;40919;43.236;21.590;2022-07-05T01:29:07;18.17;;;16.38;;
55015;SDS011;40919;43.236;21.590;2022-07-05T01:31:36;17.92;;;15.85;;
55015;SDS011;40919;43.236;21.590;2022-07-05T01:34:04;19.83;;;16.90;;
55015;SDS011;40919;43.236;21.590;2022-07-05T01:36:30;18.65;;;15.38;;
55015;SDS011;40919;43.236;21.590;2022-07-05T01:38:57;19.27;;;16.25;;
55015;SDS011;40919;43.236;21.590;2022-07-05T01:41:23;20.02;;;16.13;;
55015;SDS011;40919;43.236;21.590;2022-07-05T01:43:49;17.25;;;15.55;;
55015;SDS011;40919;43.236;21.590;2022-07-05T01:46:15;18.40;;;16.13;;
55015;SDS011;40919;43.236;21.590;2022-07-05T01:48:44;19.08;;;16.77;;
55015;SDS011;40919;43.236;21.590;2022-07-05T01:51:24;21.35;;;16.73;;
55015;SDS011;40919;43.236;21.590;2022-07-05T01:53:54;20.58;;;17.92;;
55015;SDS011;40919;43.236;21.590;2022-07-05T01:56:20;25.10;;;18.27;;
55015;SDS011;40919;43.236;21.590;2022-07-05T01:58:46;25.88;;;16.40;;
55015;SDS011;40919;43.236;21.590;2022-07-05T02:01:13;18.95;;;16.70;;
55015;SDS011;40919;43.236;21.590;2022-07-05T02:03:39;20.05;;;16.55;;
55015;SDS011;40919;43.236;21.590;2022-07-05T02:06:06;20.85;;;16.95;;
55015;SDS011;40919;43.236;21.590;2022-07-05T02:08:33;19.55;;;17.38;;
55015;SDS011;40919;43.236;21.590;2022-07-05T02:10:59;20.17;;;17.80;;
55015;SDS011;40919;43.236;21.590;2022-07-05T02:13:25;18.58;;;16.70;;
55015;SDS011;40919;43.236;21.590;2022-07-05T02:15:51;20.13;;;17.27;;
55015;SDS011;40919;43.236;21.590;2022-07-05T02:18:17;20.25;;;18.23;;
55015;SDS011;40919;43.236;21.590;2022-07-05T02:20:42;21.42;;;18.25;;
55015;SDS011;40919;43.236;21.590;2022-07-05T02:23:08;19.30;;;17.30;;
55015;SDS011;40919;43.236;21.590;2022-07-05T02:25:34;19.52;;;17.52;;
55015;SDS011;40919;43.236;21.590;2022-07-05T02:28:00;19.67;;;17.17;;
55015;SDS011;40919;43.236;21.590;2022-07-05T02:30:26;21.40;;;17.08;;
55015;SDS011;40919;43.236;21.590;2022-07-05T02:32:53;20.27;;;18.05;;
55015;SDS011;40919;43.236;21.590;2022-07-05T02:35:19;20.25;;;18.15;;
55015;SDS011;40919;43.236;21.590;2022-07-05T02:37:44;20.67;;;17.75;;
55015;SDS011;40919;43.236;21.590;2022-07-05T02:40:11;20.40;;;17.42;;
55015;SDS011;40919;43.236;21.590;2022-07-05T02:42:38;21.23;;;18.95;;
55015;SDS011;40919;43.236;21.590;2022-07-05T02:45:05;20.70;;;17.13;;
55015;SDS011;40919;43.236;21.590;2022-07-05T02:47:32;24.35;;;19.60;;
55015;SDS011;40919;43.236;21.590;2022-07-05T02:50:02;21.88;;;18.52;;
55015;SDS011;40919;43.236;21.590;2022-07-05T02:52:32;18.85;;;16.88;;
55015;SDS011;40919;43.236;21.590;2022-07-05T02:54:59;18.48;;;16.50;;
55015;SDS011;40919;43.236;21.590;2022-07-05T02:57:25;18.90;;;16.83;;
55015;SDS011;40919;43.236;21.590;2022-07-05T02:59:54;19.90;;;17.83;;
55015;SDS011;40919;43.236;21.590;2022-07-05T03:02:21;20.15;;;17.80;;
55015;SDS011;40919;43.236;21.590;2022-07-05T03:04:47;18.10;;;16.23;;
55015;SDS011;40919;43.236;21.590;2022-07-05T03:07:13;20.80;;;17.33;;
55015;SDS011;40919;43.236;21.590;2022-07-05T03:09:39;21.10;;;17.17;;
55015;SDS011;40919;43.236;21.590;2022-07-05T03:12:05;19.60;;;17.65;;
55015;SDS011;40919;43.236;21.590;2022-07-05T03:14:31;19.67;;;17.55;;
55015;SDS011;40919;43.236;21.590;2022-07-05T03:16:57;21.77;;;17.08;;
55015;SDS011;40919;43.236;21.590;2022-07-05T03:19:23;20.10;;;17.98;;
55015;SDS011;40919;43.236;21.590;2022-07-05T03:21:48;21.13;;;17.73;;
55015;SDS011;40919;43.236;21.590;2022-07-05T03:24:14;18.95;;;17.05;;
55015;SDS011;40919;43.236;21.590;2022-07-05T03:26:40;19.38;;;17.27;;
55015;SDS011;40919;43.236;21.590;2022-07-05T03:29:06;19.73;;;17.77;;
55015;SDS011;40919;43.236;21.590;2022-07-05T03:31:32;20.05;;;16.92;;
55015;SDS011;40919;43.236;21.590;2022-07-05T03:33:58;19.90;;;17.10;;
55015;SDS011;40919;43.236;21.590;2022-07-05T03:36:24;20.02;;;17.35;;
55015;SDS011;40919;43.236;21.590;2022-07-05T03:38:50;21.90;;;17.95;;
55015;SDS011;40919;43.236;21.590;2022-07-05T03:41:16;18.73;;;16.60;;
55015;SDS011;40919;43.236;21.590;2022-07-05T03:43:42;19.20;;;17.00;;
55015;SDS011;40919;43.236;21.590;2022-07-05T03:46:08;20.77;;;18.63;;
55015;SDS011;40919;43.236;21.590;2022-07-05T03:48:34;19.13;;;17.13;;
55015;SDS011;40919;43.236;21.590;2022-07-05T03:50:59;21.33;;;18.65;;
55015;SDS011;40919;43.236;21.590;2022-07-05T03:53:25;20.25;;;18.30;;
55015;SDS011;40919;43.236;21.590;2022-07-05T03:55:51;21.63;;;17.73;;
55015;SDS011;40919;43.236;21.590;2022-07-05T03:58:17;23.63;;;18.02;;
55015;SDS011;40919;43.236;21.590;2022-07-05T04:00:43;21.25;;;19.05;;
55015;SDS011;40919;43.236;21.590;2022-07-05T04:03:08;27.83;;;18.98;;
55015;SDS011;40919;43.236;21.590;2022-07-05T04:05:34;20.88;;;18.77;;
55015;SDS011;40919;43.236;21.590;2022-07-05T04:08:00;19.52;;;17.42;;
55015;SDS011;40919;43.236;21.590;2022-07-05T04:10:26;26.00;;;18.35;;
55015;SDS011;40919;43.236;21.590;2022-07-05T04:12:52;21.88;;;17.73;;
55015;SDS011;40919;43.236;21.590;2022-07-05T04:15:17;20.88;;;17.60;;
55015;SDS011;40919;43.236;21.590;2022-07-05T04:17:47;19.63;;;17.52;;
55015;SDS011;40919;43.236;21.590;2022-07-05T04:20:14;20.15;;;17.30;;
55015;SDS011;40919;43.236;21.590;2022-07-05T04:22:40;20.88;;;18.65;;
55015;SDS011;40919;43.236;21.590;2022-07-05T04:25:06;23.83;;;18.15;;
55015;SDS011;40919;43.236;21.590;2022-07-05T04:27:41;25.10;;;19.05;;
55015;SDS011;40919;43.236;21.590;2022-07-05T04:30:08;25.60;;;18.00;;
55015;SDS011;40919;43.236;21.590;2022-07-05T04:32:34;26.60;;;18.05;;
55015;SDS011;40919;43.236;21.590;2022-07-05T04:35:00;21.55;;;18.60;;
55015;SDS011;40919;43.236;21.590;2022-07-05T04:37:26;25.77;;;19.52;;
55015;SDS011;40919;43.236;21.590;2022-07-05T04:39:52;28.13;;;21.25;;
55015;SDS011;40919;43.236;21.590;2022-07-05T04:42:18;22.48;;;18.98;;
55015;SDS011;40919;43.236;21.590;2022-07-05T04:44:44;22.42;;;18.95;;
55015;SDS011;40919;43.236;21.590;2022-07-05T04:47:10;21.23;;;18.33;;
55015;SDS011;40919;43.236;21.590;2022-07-05T04:49:35;21.00;;;18.88;;
55015;SDS011;40919;43.236;21.590;2022-07-05T04:52:01;23.67;;;19.23;;
55015;SDS011;40919;43.236;21.590;2022-07-05T04:54:27;21.90;;;19.63;;
55015;SDS011;40919;43.236;21.590;2022-07-05T04:56:53;21.00;;;17.98;;
55015;SDS011;40919;43.236;21.590;2022-07-05T04:59:19;20.90;;;18.40;;
55015;SDS011;40919;43.236;21.590;2022-07-05T05:01:44;25.80;;;18.58;;
55015;SDS011;40919;43.236;21.590;2022-07-05T05:04:10;21.98;;;16.70;;
55015;SDS011;40919;43.236;21.590;2022-07-05T05:06:36;20.02;;;17.92;;
55015;SDS011;40919;43.236;21.590;2022-07-05T05:09:02;19.73;;;17.67;;
55015;SDS011;40919;43.236;21.590;2022-07-05T05:11:28;21.73;;;19.08;;
55015;SDS011;40919;43.236;21.590;2022-07-05T05:13:53;21.35;;;19.02;;
55015;SDS011;40919;43.236;21.590;2022-07-05T05:16:19;21.05;;;18.83;;
55015;SDS011;40919;43.236;21.590;2022-07-05T05:18:45;25.33;;;18.70;;
55015;SDS011;40919;43.236;21.590;2022-07-05T05:21:11;26.63;;;20.23;;
55015;SDS011;40919;43.236;21.590;2022-07-05T05:23:37;21.88;;;18.98;;
55015;SDS011;40919;43.236;21.590;2022-07-05T05:26:03;21.30;;;18.98;;
55015;SDS011;40919;43.236;21.590;2022-07-05T05:28:28;25.30;;;17.80;;
55015;SDS011;40919;43.236;21.590;2022-07-05T05:30:54;23.55;;;18.40;;
55015;SDS011;40919;43.236;21.590;2022-07-05T05:33:20;22.58;;;16.92;;
55015;SDS011;40919;43.236;21.590;2022-07-05T05:35:46;23.30;;;18.30;;
55015;SDS011;40919;43.236;21.590;2022-07-05T05:38:12;17.50;;;15.77;;
55015;SDS011;40919;43.236;21.590;2022-07-05T05:40:38;17.70;;;15.68;;
55015;SDS011;40919;43.236;21.590;2022-07-05T05:43:06;21.58;;;16.83;;
55015;SDS011;40919;43.236;21.590;2022-07-05T05:45:32;18.13;;;15.75;;
55015;SDS011;40919;43.236;21.590;2022-07-05T05:47:58;18.23;;;16.33;;
55015;SDS011;40919;43.236;21.590;2022-07-05T05:50:25;18.98;;;17.17;;
55015;SDS011;40919;43.236;21.590;2022-07-05T05:53:02;19.88;;;17.25;;
55015;SDS011;40919;43.236;21.590;2022-07-05T05:55:28;18.67;;;16.77;;
55015;SDS011;40919;43.236;21.590;2022-07-05T05:57:55;22.90;;;16.52;;
55015;SDS011;40919;43.236;21.590;2022-07-05T06:00:24;20.67;;;17.25;;
55015;SDS011;40919;43.236;21.590;2022-07-05T06:02:51;18.67;;;16.27;;
55015;SDS011;40919;43.236;21.590;2022-07-05T06:05:17;18.60;;;16.60;;
55015;SDS011;40919;43.236;21.590;2022-07-05T06:10:19;21.98;;;16.73;;
55015;SDS011;40919;43.236;21.590;2022-07-05T06:12:50;22.23;;;16.98;;
55015;SDS011;40919;43.236;21.590;2022-07-05T06:15:17;27.67;;;17.60;;
55015;SDS011;40919;43.236;21.590;2022-07-05T06:17:43;24.23;;;18.02;;
55015;SDS011;40919;43.236;21.590;2022-07-05T06:20:12;22.70;;;18.15;;
55015;SDS011;40919;43.236;21.590;2022-07-05T06:22:40;17.27;;;15.15;;
55015;SDS011;40919;43.236;21.590;2022-07-05T06:25:06;23.58;;;15.80;;
55015;SDS011;40919;43.236;21.590;2022-07-05T06:27:37;18.15;;;15.48;;
55015;SDS011;40919;43.236;21.590;2022-07-05T06:30:07;16.75;;;14.98;;
55015;SDS011;40919;43.236;21.590;2022-07-05T06:32:33;23.67;;;15.40;;
55015;SDS011;40919;43.236;21.590;2022-07-05T06:34:59;15.50;;;13.90;;
55015;SDS011;40919;43.236;21.590;2022-07-05T06:40:27;19.10;;;15.15;;
55015;SDS011;40919;43.236;21.590;2022-07-05T06:43:02;17.23;;;13.63;;
55015;SDS011;40919;43.236;21.590;2022-07-05T06:45:32;16.55;;;13.65;;
55015;SDS011;40919;43.236;21.590;2022-07-05T06:48:09;17.60;;;15.05;;
55015;SDS011;40919;43.236;21.590;2022-07-05T06:50:36;15.25;;;13.07;;
55015;SDS011;40919;43.236;21.590;2022-07-05T06:53:08;18.05;;;14.75;;
55015;SDS011;40919;43.236;21.590;2022-07-05T06:55:35;17.05;;;14.57;;
55015;SDS011;40919;43.236;21.590;2022-07-05T06:58:05;19.60;;;13.63;;
55015;SDS011;40919;43.236;21.590;2022-07-05T07:00:37;14.35;;;13.02;;
55015;SDS011;40919;43.236;21.590;2022-07-05T07:03:04;17.10;;;13.25;;
55015;SDS011;40919;43.236;21.590;2022-07-05T07:05:30;16.30;;;13.40;;
55015;SDS011;40919;43.236;21.590;2022-07-05T07:07:57;15.68;;;13.35;;
55015;SDS011;40919;43.236;21.590;2022-07-05T07:10:41;14.18;;;12.80;;
55015;SDS011;40919;43.236;21.590;2022-07-05T07:13:08;17.08;;;14.10;;
55015;SDS011;40919;43.236;21.590;2022-07-05T07:15:36;22.33;;;15.15;;
55015;SDS011;40919;43.236;21.590;2022-07-05T07:18:06;19.10;;;13.90;;
55015;SDS011;40919;43.236;21.590;2022-07-05T07:20:32;17.80;;;13.93;;
55015;SDS011;40919;43.236;21.590;2022-07-05T07:22:58;16.15;;;12.02;;
55015;SDS011;40919;43.236;21.590;2022-07-05T07:25:24;15.35;;;12.68;;
55015;SDS011;40919;43.236;21.590;2022-07-05T07:27:52;14.70;;;11.80;;
55015;SDS011;40919;43.236;21.590;2022-07-05T07:30:23;16.58;;;12.40;;
55015;SDS011;40919;43.236;21.590;2022-07-05T07:32:50;13.40;;;12.00;;
55015;SDS011;40919;43.236;21.590;2022-07-05T07:35:16;13.60;;;12.13;;
55015;SDS011;40919;43.236;21.590;2022-07-05T07:37:42;12.98;;;11.75;;
55015;SDS011;40919;43.236;21.590;2022-07-05T07:40:08;13.30;;;11.27;;
55015;SDS011;40919;43.236;21.590;2022-07-05T07:42:35;12.43;;;11.13;;
55015;SDS011;40919;43.236;21.590;2022-07-05T07:45:01;13.55;;;10.40;;
55015;SDS011;40919;43.236;21.590;2022-07-05T07:47:29;14.90;;;10.63;;
55015;SDS011;40919;43.236;21.590;2022-07-05T07:49:58;29.33;;;13.93;;
55015;SDS011;40919;43.236;21.590;2022-07-05T07:52:25;14.00;;;10.95;;
55015;SDS011;40919;43.236;21.590;2022-07-05T07:54:51;17.70;;;11.32;;
55015;SDS011;40919;43.236;21.590;2022-07-05T07:57:18;20.60;;;10.93;;
55015;SDS011;40919;43.236;21.590;2022-07-05T07:59:44;15.93;;;12.13;;
55015;SDS011;40919;43.236;21.590;2022-07-05T08:02:10;15.20;;;11.30;;
55015;SDS011;40919;43.236;21.590;2022-07-05T08:04:36;13.85;;;11.20;;
55015;SDS011;40919;43.236;21.590;2022-07-05T08:07:02;15.30;;;10.50;;
55015;SDS011;40919;43.236;21.590;2022-07-05T08:09:29;15.73;;;11.90;;
55015;SDS011;40919;43.236;21.590;2022-07-05T08:11:55;13.13;;;11.05;;
55015;SDS011;40919;43.236;21.590;2022-07-05T08:14:22;15.45;;;11.48;;
55015;SDS011;40919;43.236;21.590;2022-07-05T08:16:49;12.32;;;10.63;;
55015;SDS011;40919;43.236;21.590;2022-07-05T08:19:16;14.23;;;11.85;;
55015;SDS011;40919;43.236;21.590;2022-07-05T08:22:02;14.82;;;12.20;;
55015;SDS011;40919;43.236;21.590;2022-07-05T08:24:28;15.82;;;11.65;;
55015;SDS011;40919;43.236;21.590;2022-07-05T08:26:58;13.00;;;10.77;;
55015;SDS011;40919;43.236;21.590;2022-07-05T08:29:23;21.40;;;16.35;;
55015;SDS011;40919;43.236;21.590;2022-07-05T08:31:50;18.08;;;12.40;;
55015;SDS011;40919;43.236;21.590;2022-07-05T08:34:16;13.68;;;10.50;;
55015;SDS011;40919;43.236;21.590;2022-07-05T08:36:46;14.90;;;11.10;;
55015;SDS011;40919;43.236;21.590;2022-07-05T08:39:13;16.10;;;10.98;;
55015;SDS011;40919;43.236;21.590;2022-07-05T08:41:40;13.60;;;11.82;;
55015;SDS011;40919;43.236;21.590;2022-07-05T08:44:07;15.13;;;10.63;;
55015;SDS011;40919;43.236;21.590;2022-07-05T08:46:38;15.98;;;10.88;;
55015;SDS011;40919;43.236;21.590;2022-07-05T08:49:05;11.60;;;10.10;;
55015;SDS011;40919;43.236;21.590;2022-07-05T08:51:36;85.93;;;16.92;;
55015;SDS011;40919;43.236;21.590;2022-07-05T08:54:07;13.23;;;10.48;;
55015;SDS011;40919;43.236;21.590;2022-07-05T08:56:34;14.13;;;9.90;;
55015;SDS011;40919;43.236;21.590;2022-07-05T08:59:01;13.25;;;10.27;;
55015;SDS011;40919;43.236;21.590;2022-07-05T09:01:28;11.50;;;10.30;;
55015;SDS011;40919;43.236;21.590;2022-07-05T09:04:00;12.93;;;11.13;;
55015;SDS011;40919;43.236;21.590;2022-07-05T09:06:29;13.40;;;10.85;;
55015;SDS011;40919;43.236;21.590;2022-07-05T09:08:59;15.02;;;11.43;;
55015;SDS011;40919;43.236;21.590;2022-07-05T09:14:06;10.85;;;9.43;;
55015;SDS011;40919;43.236;21.590;2022-07-05T09:16:42;11.93;;;9.90;;
55015;SDS011;40919;43.236;21.590;2022-07-05T09:19:08;11.27;;;10.27;;
55015;SDS011;40919;43.236;21.590;2022-07-05T09:21:34;15.90;;;9.95;;
55015;SDS011;40919;43.236;21.590;2022-07-05T09:26:34;13.30;;;11.68;;
55015;SDS011;40919;43.236;21.590;2022-07-05T09:29:05;11.75;;;9.45;;
55015;SDS011;40919;43.236;21.590;2022-07-05T09:31:33;10.32;;;8.60;;
55015;SDS011;40919;43.236;21.590;2022-07-05T09:34:07;12.25;;;10.73;;
55015;SDS011;40919;43.236;21.590;2022-07-05T09:36:47;14.05;;;9.98;;
55015;SDS011;40919;43.236;21.590;2022-07-05T09:42:09;11.73;;;8.88;;
55015;SDS011;40919;43.236;21.590;2022-07-05T09:44:45;11.95;;;9.52;;
55015;SDS011;40919;43.236;21.590;2022-07-05T09:47:16;10.63;;;8.82;;
55015;SDS011;40919;43.236;21.590;2022-07-05T09:52:34;13.18;;;9.25;;
55015;SDS011;40919;43.236;21.590;2022-07-05T09:55:10;14.95;;;11.65;;
55015;SDS011;40919;43.236;21.590;2022-07-05T09:57:44;10.43;;;9.20;;
55015;SDS011;40919;43.236;21.590;2022-07-05T10:00:20;12.05;;;8.63;;
55015;SDS011;40919;43.236;21.590;2022-07-05T10:07:55;13.68;;;9.77;;
55015;SDS011;40919;43.236;21.590;2022-07-05T10:10:23;9.23;;;8.25;;
55015;SDS011;40919;43.236;21.590;2022-07-05T10:12:51;10.93;;;8.48;;
55015;SDS011;40919;43.236;21.590;2022-07-05T10:15:21;13.10;;;9.70;;
55015;SDS011;40919;43.236;21.590;2022-07-05T10:20:41;15.95;;;10.38;;
55015;SDS011;40919;43.236;21.590;2022-07-05T10:23:10;9.82;;;8.68;;
55015;SDS011;40919;43.236;21.590;2022-07-05T10:25:44;11.73;;;9.02;;
55015;SDS011;40919;43.236;21.590;2022-07-05T10:28:17;10.02;;;8.55;;
55015;SDS011;40919;43.236;21.590;2022-07-05T10:30:44;16.08;;;8.57;;
55015;SDS011;40919;43.236;21.590;2022-07-05T10:33:19;11.43;;;8.63;;
55015;SDS011;40919;43.236;21.590;2022-07-05T10:35:50;11.38;;;8.18;;
55015;SDS011;40919;43.236;21.590;2022-07-05T10:38:44;10.23;;;8.00;;
55015;SDS011;40919;43.236;21.590;2022-07-05T10:41:14;10.15;;;7.68;;
55015;SDS011;40919;43.236;21.590;2022-07-05T10:43:43;12.25;;;8.90;;
55015;SDS011;40919;43.236;21.590;2022-07-05T10:46:09;10.13;;;8.30;;
55015;SDS011;40919;43.236;21.590;2022-07-05T10:48:35;9.77;;;8.23;;
55015;SDS011;40919;43.236;21.590;2022-07-05T10:51:22;10.25;;;8.50;;
55015;SDS011;40919;43.236;21.590;2022-07-05T10:56:21;9.27;;;7.85;;
55015;SDS011;40919;43.236;21.590;2022-07-05T10:58:48;14.68;;;8.80;;
55015;SDS011;40919;43.236;21.590;2022-07-05T11:01:32;13.70;;;8.30;;
55015;SDS011;40919;43.236;21.590;2022-07-05T11:11:33;9.50;;;8.50;;
55015;SDS011;40919;43.236;21.590;2022-07-05T11:14:01;10.30;;;7.75;;
55015;SDS011;40919;43.236;21.590;2022-07-05T11:19:09;12.02;;;7.95;;
55015;SDS011;40919;43.236;21.590;2022-07-05T11:21:37;10.55;;;8.13;;
55015;SDS011;40919;43.236;21.590;2022-07-05T11:24:25;11.88;;;7.70;;
55015;SDS011;40919;43.236;21.590;2022-07-05T11:26:53;9.98;;;7.60;;
55015;SDS011;40919;43.236;21.590;2022-07-05T11:32:14;11.52;;;8.15;;
55015;SDS011;40919;43.236;21.590;2022-07-05T11:34:42;11.90;;;8.13;;
55015;SDS011;40919;43.236;21.590;2022-07-05T11:37:19;10.48;;;7.82;;
55015;SDS011;40919;43.236;21.590;2022-07-05T11:42:36;11.50;;;7.88;;
55015;SDS011;40919;43.236;21.590;2022-07-05T11:45:07;12.13;;;7.82;;
55015;SDS011;40919;43.236;21.590;2022-07-05T11:47:36;8.88;;;7.97;;
55015;SDS011;40919;43.236;21.590;2022-07-05T11:50:03;9.88;;;8.05;;
55015;SDS011;40919;43.236;21.590;2022-07-05T11:52:30;10.60;;;8.43;;
55015;SDS011;40919;43.236;21.590;2022-07-05T11:54:57;10.77;;;8.40;;
55015;SDS011;40919;43.236;21.590;2022-07-05T11:57:24;12.07;;;7.75;;
55015;SDS011;40919;43.236;21.590;2022-07-05T11:59:51;10.63;;;8.38;;
55015;SDS011;40919;43.236;21.590;2022-07-05T12:02:17;14.68;;;7.80;;
55015;SDS011;40919;43.236;21.590;2022-07-05T12:04:47;9.35;;;8.10;;
55015;SDS011;40919;43.236;21.590;2022-07-05T12:07:24;10.20;;;8.25;;
55015;SDS011;40919;43.236;21.590;2022-07-05T12:09:51;11.30;;;9.80;;
55015;SDS011;40919;43.236;21.590;2022-07-05T12:12:36;11.82;;;9.55;;
55015;SDS011;40919;43.236;21.590;2022-07-05T12:15:08;10.73;;;8.77;;
55015;SDS011;40919;43.236;21.590;2022-07-05T12:17:50;14.48;;;9.40;;
55015;SDS011;40919;43.236;21.590;2022-07-05T12:20:20;9.80;;;8.60;;
55015;SDS011;40919;43.236;21.590;2022-07-05T12:22:48;10.18;;;8.32;;
55015;SDS011;40919;43.236;21.590;2022-07-05T12:25:15;12.98;;;8.57;;
55015;SDS011;40919;43.236;21.590;2022-07-05T12:27:43;12.73;;;8.55;;
55015;SDS011;40919;43.236;21.590;2022-07-05T12:30:10;11.35;;;8.43;;
55015;SDS011;40919;43.236;21.590;2022-07-05T12:35:29;11.18;;;9.07;;
55015;SDS011;40919;43.236;21.590;2022-07-05T12:38:11;9.95;;;8.77;;
55015;SDS011;40919;43.236;21.590;2022-07-05T12:40:40;13.18;;;9.25;;
55015;SDS011;40919;43.236;21.590;2022-07-05T12:43:08;13.95;;;8.73;;
55015;SDS011;40919;43.236;21.590;2022-07-05T12:45:36;10.10;;;8.50;;
55015;SDS011;40919;43.236;21.590;2022-07-05T12:48:29;10.95;;;8.15;;
55015;SDS011;40919;43.236;21.590;2022-07-05T12:50:56;9.85;;;8.55;;
55015;SDS011;40919;43.236;21.590;2022-07-05T12:53:22;12.55;;;8.77;;
55015;SDS011;40919;43.236;21.590;2022-07-05T12:56:08;13.52;;;8.55;;
55015;SDS011;40919;43.236;21.590;2022-07-05T12:58:57;11.43;;;8.25;;
55015;SDS011;40919;43.236;21.590;2022-07-05T13:01:26;11.02;;;9.18;;
55015;SDS011;40919;43.236;21.590;2022-07-05T13:04:00;14.65;;;8.45;;
55015;SDS011;40919;43.236;21.590;2022-07-05T13:12:16;12.60;;;8.80;;
55015;SDS011;40919;43.236;21.590;2022-07-05T13:14:50;14.27;;;9.18;;
55015;SDS011;40919;43.236;21.590;2022-07-05T13:17:21;14.82;;;9.20;;
55015;SDS011;40919;43.236;21.590;2022-07-05T13:19:49;12.80;;;8.60;;
55015;SDS011;40919;43.236;21.590;2022-07-05T13:22:16;13.27;;;9.30;;
55015;SDS011;40919;43.236;21.590;2022-07-05T13:24:42;11.15;;;8.45;;
55015;SDS011;40919;43.236;21.590;2022-07-05T13:27:09;11.40;;;9.57;;
55015;SDS011;40919;43.236;21.590;2022-07-05T13:29:36;13.70;;;8.55;;
55015;SDS011;40919;43.236;21.590;2022-07-05T13:32:02;11.82;;;9.07;;
55015;SDS011;40919;43.236;21.590;2022-07-05T13:34:29;11.18;;;8.85;;
55015;SDS011;40919;43.236;21.590;2022-07-05T13:36:55;10.07;;;8.68;;
55015;SDS011;40919;43.236;21.590;2022-07-05T13:39:22;11.10;;;7.72;;
55015;SDS011;40919;43.236;21.590;2022-07-05T13:41:50;11.55;;;8.70;;
55015;SDS011;40919;43.236;21.590;2022-07-05T13:44:17;10.35;;;7.97;;
55015;SDS011;40919;43.236;21.590;2022-07-05T13:46:43;10.20;;;7.90;;
55015;SDS011;40919;43.236;21.590;2022-07-05T13:49:09;12.73;;;8.68;;
55015;SDS011;40919;43.236;21.590;2022-07-05T13:51:35;10.85;;;7.85;;
55015;SDS011;40919;43.236;21.590;2022-07-05T13:54:01;10.30;;;7.65;;
55015;SDS011;40919;43.236;21.590;2022-07-05T13:56:27;9.75;;;7.80;;
55015;SDS011;40919;43.236;21.590;2022-07-05T13:58:53;14.15;;;8.77;;
55015;SDS011;40919;43.236;21.590;2022-07-05T14:01:20;9.70;;;8.23;;
55015;SDS011;40919;43.236;21.590;2022-07-05T14:03:51;16.10;;;9.48;;
55015;SDS011;40919;43.236;21.590;2022-07-05T14:06:18;9.80;;;8.32;;
55015;SDS011;40919;43.236;21.590;2022-07-05T14:08:44;11.65;;;8.35;;
55015;SDS011;40919;43.236;21.590;2022-07-05T14:11:10;13.35;;;8.13;;
55015;SDS011;40919;43.236;21.590;2022-07-05T14:13:37;11.55;;;8.93;;
55015;SDS011;40919;43.236;21.590;2022-07-05T14:16:04;10.30;;;7.57;;
55015;SDS011;40919;43.236;21.590;2022-07-05T14:18:30;11.15;;;8.38;;
55015;SDS011;40919;43.236;21.590;2022-07-05T14:20:55;15.10;;;8.90;;
55015;SDS011;40919;43.236;21.590;2022-07-05T14:23:22;9.88;;;8.15;;
55015;SDS011;40919;43.236;21.590;2022-07-05T14:25:47;13.73;;;8.38;;
55015;SDS011;40919;43.236;21.590;2022-07-05T14:28:13;14.60;;;9.95;;
55015;SDS011;40919;43.236;21.590;2022-07-05T14:30:40;11.10;;;9.50;;
55015;SDS011;40919;43.236;21.590;2022-07-05T14:33:08;12.00;;;8.68;;
55015;SDS011;40919;43.236;21.590;2022-07-05T14:35:34;10.55;;;8.98;;
55015;SDS011;40919;43.236;21.590;2022-07-05T14:38:01;11.95;;;9.57;;
55015;SDS011;40919;43.236;21.590;2022-07-05T14:40:27;12.80;;;8.80;;
55015;SDS011;40919;43.236;21.590;2022-07-05T14:42:55;13.35;;;9.48;;
55015;SDS011;40919;43.236;21.590;2022-07-05T14:45:23;12.57;;;9.30;;
55015;SDS011;40919;43.236;21.590;2022-07-05T14:47:49;12.10;;;8.82;;
55015;SDS011;40919;43.236;21.590;2022-07-05T14:50:15;12.45;;;9.40;;
55015;SDS011;40919;43.236;21.590;2022-07-05T14:52:41;10.82;;;8.63;;
55015;SDS011;40919;43.236;21.590;2022-07-05T14:55:07;12.23;;;9.13;;
55015;SDS011;40919;43.236;21.590;2022-07-05T14:57:37;13.95;;;8.57;;
55015;SDS011;40919;43.236;21.590;2022-07-05T15:00:05;10.13;;;9.13;;
55015;SDS011;40919;43.236;21.590;2022-07-05T15:02:37;12.82;;;10.18;;
55015;SDS011;40919;43.236;21.590;2022-07-05T15:05:03;12.55;;;9.80;;
55015;SDS011;40919;43.236;21.590;2022-07-05T15:07:30;12.77;;;9.60;;
55015;SDS011;40919;43.236;21.590;2022-07-05T15:09:56;12.48;;;9.57;;